createdAt,value
2018-09-03T00:00:47.689Z,42.60
2018-09-03T00:01:47.682Z,43.40
2018-09-03T00:02:47.687Z,43.30
2018-09-03T00:03:47.717Z,42.30
2018-09-03T00:04:47.686Z,41.40
2018-09-03T00:05:47.687Z,42.80
2018-09-03T00:06:47.691Z,42.80
2018-09-03T00:07:47.684Z,42.80
2018-09-03T00:08:47.715Z,43.40
2018-09-03T00:09:47.687Z,42.30
2018-09-03T00:10:47.687Z,41.20
2018-09-03T00:11:47.701Z,42.50
2018-09-03T00:12:48.339Z,41.90
2018-09-03T00:13:47.719Z,41.60
2018-09-03T00:14:47.688Z,42.30
2018-09-03T00:15:47.684Z,41.80
2018-09-03T00:16:47.688Z,43.00
2018-09-03T00:17:47.687Z,42.50
2018-09-03T00:18:47.718Z,43.50
2018-09-03T00:19:47.684Z,42.70
2018-09-03T00:20:47.690Z,42.40
2018-09-03T00:21:47.690Z,42.60
2018-09-03T00:22:47.720Z,42.30
2018-09-03T00:23:47.690Z,43.20
2018-09-03T00:24:47.689Z,44.50
2018-09-03T00:25:47.694Z,42.90
2018-09-03T00:26:47.688Z,42.30
2018-09-03T00:27:47.717Z,43.90
2018-09-03T00:28:47.689Z,43.40
2018-09-03T00:29:47.691Z,43.80
2018-09-03T00:30:47.689Z,42.80
2018-09-03T00:31:47.685Z,42.70
2018-09-03T00:32:47.714Z,43.20
2018-09-03T00:33:47.690Z,43.50
2018-09-03T00:34:47.690Z,43.10
2018-09-03T00:35:47.687Z,43.00
2018-09-03T00:36:47.715Z,44.40
2018-09-03T00:37:47.691Z,43.30
2018-09-03T00:38:47.690Z,44.20
2018-09-03T00:39:47.691Z,44.50
2018-09-03T00:40:47.688Z,44.60
2018-09-03T00:41:47.715Z,44.70
2018-09-03T00:42:47.692Z,46.20
2018-09-03T00:43:47.687Z,44.50
2018-09-03T00:44:47.692Z,44.20
2018-09-03T00:45:47.690Z,43.80
2018-09-03T00:46:47.719Z,44.50
2018-09-03T00:47:47.690Z,45.30
2018-09-03T00:48:47.692Z,44.50
2018-09-03T00:49:47.692Z,44.60
2018-09-03T00:50:47.692Z,44.50
2018-09-03T00:51:47.722Z,43.40
2018-09-03T00:52:47.693Z,43.30
2018-09-03T00:53:47.694Z,43.80
2018-09-03T00:54:47.691Z,42.70
2018-09-03T00:55:47.689Z,43.00
2018-09-03T00:56:47.720Z,42.70
2018-09-03T00:57:47.689Z,43.00
2018-09-03T00:58:47.690Z,42.70
2018-09-03T00:59:47.690Z,42.30
2018-09-03T01:00:47.693Z,42.70
2018-09-03T01:01:47.718Z,43.10
2018-09-03T01:02:47.697Z,42.60
2018-09-03T01:03:47.693Z,41.00
2018-09-03T01:04:47.695Z,40.10
2018-09-03T01:05:47.691Z,40.10
2018-09-03T01:06:47.719Z,39.50
2018-09-03T01:07:47.691Z,39.20
2018-09-03T01:08:47.699Z,40.50
2018-09-03T01:09:47.688Z,40.40
2018-09-03T01:10:47.691Z,40.10
2018-09-03T01:11:47.718Z,40.10
2018-09-03T01:12:47.696Z,41.40
2018-09-03T01:13:47.691Z,40.10
2018-09-03T01:14:47.689Z,40.70
2018-09-03T01:15:47.692Z,42.30
2018-09-03T01:16:47.720Z,40.40
2018-09-03T01:17:47.692Z,42.70
2018-09-03T01:18:47.693Z,41.80
2018-09-03T01:19:47.693Z,42.90
2018-09-03T01:20:47.720Z,42.80
2018-09-03T01:21:47.692Z,42.00
2018-09-03T01:22:47.692Z,42.70
2018-09-03T01:23:47.696Z,43.90
2018-09-03T01:24:47.701Z,39.90
2018-09-03T01:25:47.721Z,40.20
2018-09-03T01:26:47.694Z,41.80
2018-09-03T01:27:47.693Z,42.80
2018-09-03T01:28:47.696Z,42.40
2018-09-03T01:29:47.697Z,41.60
2018-09-03T01:30:47.722Z,43.10
2018-09-03T01:31:47.695Z,42.60
2018-09-03T01:32:47.696Z,43.90
2018-09-03T01:33:47.722Z,43.80
2018-09-03T01:34:47.695Z,43.70
2018-09-03T01:35:47.697Z,42.90
2018-09-03T01:36:47.710Z,44.30
2018-09-03T01:37:47.694Z,45.10
2018-09-03T01:38:47.721Z,45.10
2018-09-03T01:39:47.692Z,44.00
2018-09-03T01:40:47.699Z,43.20
2018-09-03T01:41:47.723Z,43.80
2018-09-03T01:42:47.695Z,43.70
2018-09-03T01:43:47.698Z,45.50
2018-09-03T01:44:47.697Z,46.00
2018-09-03T01:45:47.723Z,45.30
2018-09-03T01:46:47.699Z,46.60
2018-09-03T01:47:47.697Z,46.00
2018-09-03T01:48:48.728Z,46.80
2018-09-03T01:49:47.695Z,47.30
2018-09-03T01:50:47.696Z,45.60
2018-09-03T01:51:47.724Z,44.60
2018-09-03T01:52:47.813Z,46.00
2018-09-03T01:53:47.697Z,45.40
2018-09-03T01:54:47.696Z,45.70
2018-09-03T01:55:47.728Z,45.90
2018-09-03T01:56:47.701Z,46.40
2018-09-03T01:57:47.692Z,46.90
2018-09-03T01:58:47.700Z,48.10
2018-09-03T01:59:47.701Z,46.50
2018-09-03T02:00:47.725Z,47.50
2018-09-03T02:01:47.701Z,47.50
2018-09-03T02:02:47.706Z,48.40
2018-09-03T02:03:47.723Z,49.20
2018-09-03T02:04:47.702Z,49.90
2018-09-03T02:05:47.735Z,49.30
2018-09-03T02:06:47.704Z,50.20
2018-09-03T02:07:47.700Z,50.10
2018-09-03T02:08:47.702Z,52.10
2018-09-03T02:09:47.695Z,53.40
2018-09-03T02:10:47.730Z,53.40
2018-09-03T02:11:47.699Z,53.20
2018-09-03T02:12:47.703Z,52.60
2018-09-03T02:13:47.727Z,51.50
2018-09-03T02:14:47.707Z,52.70
2018-09-03T02:15:47.701Z,53.00
2018-09-03T02:16:47.723Z,53.30
2018-09-03T02:17:47.704Z,53.70
2018-09-03T02:18:47.731Z,54.60
2018-09-03T02:19:47.700Z,51.90
2018-09-03T02:20:47.703Z,55.80
2018-09-03T02:21:47.738Z,55.10
2018-09-03T02:22:47.704Z,54.50
2018-09-03T02:23:47.700Z,53.50
2018-09-03T02:24:47.704Z,56.40
2018-09-03T02:25:47.736Z,53.80
2018-09-03T02:26:47.704Z,53.20
2018-09-03T02:27:47.701Z,55.30
2018-09-03T02:28:47.705Z,54.90
2018-09-03T02:29:47.705Z,53.20
2018-09-03T02:30:47.731Z,51.50
2018-09-03T02:31:47.701Z,54.70
2018-09-03T02:32:47.705Z,55.50
2018-09-03T02:33:47.705Z,52.10
2018-09-03T02:34:47.707Z,51.80
2018-09-03T02:35:47.730Z,53.30
2018-09-03T02:36:47.734Z,54.80
2018-09-03T02:37:47.706Z,53.80
2018-09-03T02:38:47.703Z,55.00
2018-09-03T02:39:47.702Z,56.60
2018-09-03T02:40:47.707Z,59.20
2018-09-03T02:41:47.732Z,56.40
2018-09-03T02:42:47.846Z,58.70
2018-09-03T02:43:47.703Z,57.10
2018-09-03T02:44:47.707Z,55.20
2018-09-03T02:45:47.739Z,53.60
2018-09-03T02:46:47.712Z,53.70
2018-09-03T02:47:47.708Z,53.10
2018-09-03T02:48:47.707Z,52.80
2018-09-03T02:49:47.708Z,54.20
2018-09-03T02:50:47.736Z,55.80
2018-09-03T02:51:47.704Z,53.10
2018-09-03T02:52:47.707Z,52.20
2018-09-03T02:53:47.708Z,54.20
2018-09-03T02:54:47.708Z,51.60
2018-09-03T02:55:47.736Z,51.50
2018-09-03T02:56:47.704Z,51.80
2018-09-03T02:57:47.723Z,51.40
2018-09-03T02:58:47.709Z,54.50
2018-09-03T02:59:47.705Z,51.50
2018-09-03T03:00:47.737Z,52.50
2018-09-03T03:01:47.709Z,49.60
2018-09-03T03:02:47.711Z,49.10
2018-09-03T03:03:47.709Z,47.40
2018-09-03T03:04:47.710Z,46.30
2018-09-03T03:05:47.741Z,45.00
2018-09-03T03:06:47.710Z,44.50
2018-09-03T03:07:47.707Z,47.70
2018-09-03T03:08:47.713Z,46.80
2018-09-03T03:09:47.709Z,46.60
2018-09-03T03:10:47.742Z,49.10
2018-09-03T03:11:47.763Z,46.30
2018-09-03T03:12:47.870Z,46.70
2018-09-03T03:13:47.735Z,49.80
2018-09-03T03:14:47.711Z,53.80
2018-09-03T03:15:47.736Z,50.30
2018-09-03T03:16:47.711Z,45.20
2018-09-03T03:17:47.732Z,46.60
2018-09-03T03:18:47.712Z,49.50
2018-09-03T03:19:47.711Z,48.90
2018-09-03T03:20:47.741Z,47.20
2018-09-03T03:21:47.711Z,45.80
2018-09-03T03:22:47.712Z,45.40
2018-09-03T03:23:47.707Z,45.50
2018-09-03T03:24:47.710Z,45.30
2018-09-03T03:25:47.737Z,46.60
2018-09-03T03:26:47.708Z,48.20
2018-09-03T03:27:47.712Z,45.50
2018-09-03T03:28:47.712Z,50.80
2018-09-03T03:29:47.737Z,47.90
2018-09-03T03:30:47.708Z,49.00
2018-09-03T03:31:47.710Z,46.50
2018-09-03T03:32:47.800Z,47.50
2018-09-03T03:33:47.708Z,49.00
2018-09-03T03:34:47.708Z,52.30
2018-09-03T03:35:47.747Z,49.70
2018-09-03T03:36:47.716Z,50.40
2018-09-03T03:37:47.710Z,47.20
2018-09-03T03:38:47.716Z,47.90
2018-09-03T03:39:47.709Z,51.50
2018-09-03T03:40:47.737Z,49.80
2018-09-03T03:41:51.625Z,50.50
2018-09-03T03:42:47.709Z,55.60
2018-09-03T03:43:47.708Z,49.20
2018-09-03T03:44:47.717Z,52.70
2018-09-03T03:45:47.738Z,54.20
2018-09-03T03:46:47.710Z,52.70
2018-09-03T03:47:48.389Z,50.30
2018-09-03T03:48:47.784Z,49.90
2018-09-03T03:49:47.708Z,47.50
2018-09-03T03:50:47.739Z,50.40
2018-09-03T03:51:47.708Z,51.60
2018-09-03T03:52:47.843Z,51.50
2018-09-03T03:53:47.707Z,50.00
2018-09-03T03:54:47.704Z,48.50
2018-09-03T03:55:47.736Z,48.10
2018-09-03T03:56:47.709Z,45.60
2018-09-03T03:57:47.708Z,45.80
2018-09-03T03:58:47.706Z,51.80
2018-09-03T03:59:47.712Z,50.70
2018-09-03T04:00:47.741Z,48.40
2018-09-03T04:01:47.730Z,48.80
2018-09-03T04:02:47.713Z,49.00
2018-09-03T04:03:47.709Z,47.80
2018-09-03T04:04:47.708Z,45.30
2018-09-03T04:05:47.738Z,44.70
2018-09-03T04:06:47.714Z,45.70
2018-09-03T04:07:47.709Z,49.60
2018-09-03T04:08:47.726Z,46.30
2018-09-03T04:09:47.710Z,52.40
2018-09-03T04:10:47.734Z,48.80
2018-09-03T04:11:47.738Z,45.40
2018-09-03T04:12:47.882Z,44.30
2018-09-03T04:13:47.714Z,45.00
2018-09-03T04:14:47.707Z,46.20
2018-09-03T04:15:47.712Z,47.10
2018-09-03T04:16:47.740Z,46.70
2018-09-03T04:17:47.719Z,44.20
2018-09-03T04:18:47.712Z,48.50
2018-09-03T04:19:47.707Z,47.00
2018-09-03T04:20:47.707Z,46.60
2018-09-03T04:21:47.735Z,45.30
2018-09-03T04:22:47.715Z,42.90
2018-09-03T04:23:47.773Z,45.40
2018-09-03T04:24:47.707Z,47.90
2018-09-03T04:25:47.704Z,48.20
2018-09-03T04:26:47.740Z,47.80
2018-09-03T04:27:47.709Z,42.90
2018-09-03T04:28:47.756Z,43.20
2018-09-03T04:29:47.708Z,45.00
2018-09-03T04:30:47.708Z,45.70
2018-09-03T04:31:47.741Z,46.20
2018-09-03T04:32:47.926Z,46.40
2018-09-03T04:33:47.705Z,51.90
2018-09-03T04:34:47.709Z,52.10
2018-09-03T04:35:47.714Z,48.40
2018-09-03T04:36:47.735Z,47.40
2018-09-03T04:37:47.709Z,50.70
2018-09-03T04:38:47.795Z,44.40
2018-09-03T04:39:47.706Z,44.90
2018-09-03T04:40:47.711Z,44.30
2018-09-03T04:41:47.742Z,44.90
2018-09-03T04:42:47.710Z,45.60
2018-09-03T04:43:47.709Z,45.80
2018-09-03T04:44:47.706Z,45.40
2018-09-03T04:45:47.711Z,49.50
2018-09-03T04:46:47.735Z,48.30
2018-09-03T04:47:47.707Z,45.00
2018-09-03T04:48:47.705Z,46.50
2018-09-03T04:49:47.739Z,43.40
2018-09-03T04:50:47.715Z,45.90
2018-09-03T04:51:47.736Z,43.50
2018-09-03T04:52:47.856Z,43.60
2018-09-03T04:53:47.712Z,44.90
2018-09-03T04:54:47.726Z,45.00
2018-09-03T04:55:47.708Z,42.70
2018-09-03T04:56:47.736Z,44.80
2018-09-03T04:57:47.706Z,44.90
2018-09-03T04:58:47.711Z,46.30
2018-09-03T04:59:47.709Z,44.00
2018-09-03T05:00:47.706Z,44.80
2018-09-03T05:01:47.743Z,43.70
2018-09-03T05:02:47.711Z,44.10
2018-09-03T05:03:48.383Z,44.70
2018-09-03T05:04:47.705Z,44.90
2018-09-03T05:05:47.777Z,45.70
2018-09-03T05:06:47.738Z,43.20
2018-09-03T05:07:47.710Z,45.50
2018-09-03T05:08:47.706Z,45.20
2018-09-03T05:09:49.767Z,44.70
2018-09-03T05:10:51.266Z,46.10
2018-09-03T05:11:48.646Z,45.00
2018-09-03T05:12:54.620Z,45.10
2018-09-03T05:13:47.792Z,46.80
2018-09-03T05:14:47.713Z,48.40
2018-09-03T05:15:47.743Z,45.90
2018-09-03T05:16:53.750Z,47.00
2018-09-03T05:17:50.392Z,45.60
2018-09-03T05:18:50.288Z,46.00
2018-09-03T05:19:48.098Z,44.70
2018-09-03T05:20:50.363Z,45.10
2018-09-03T05:21:49.246Z,46.60
2018-09-03T05:22:48.110Z,50.00
2018-09-03T05:23:47.712Z,46.30
2018-09-03T05:24:47.788Z,45.30
2018-09-03T05:25:47.736Z,45.20
2018-09-03T05:26:47.740Z,43.60
2018-09-03T05:27:47.717Z,45.40
2018-09-03T05:28:47.710Z,47.60
2018-09-03T05:29:47.721Z,46.80
2018-09-03T05:30:48.383Z,43.70
2018-09-03T05:31:47.748Z,44.40
2018-09-03T05:32:47.715Z,44.90
2018-09-03T05:33:47.715Z,45.00
2018-09-03T05:34:47.719Z,45.10
2018-09-03T05:35:47.811Z,45.50
2018-09-03T05:36:47.711Z,43.30
2018-09-03T05:37:47.720Z,44.70
2018-09-03T05:38:47.719Z,43.70
2018-09-03T05:39:47.867Z,44.40
2018-09-03T05:40:47.749Z,45.10
2018-09-03T05:41:47.716Z,44.70
2018-09-03T05:42:47.718Z,45.30
2018-09-03T05:43:47.774Z,43.20
2018-09-03T05:44:47.716Z,42.40
2018-09-03T05:45:47.740Z,42.20
2018-09-03T05:46:47.718Z,42.40
2018-09-03T05:47:47.724Z,43.60
2018-09-03T05:48:47.724Z,43.90
2018-09-03T05:49:47.724Z,42.00
2018-09-03T05:50:47.836Z,42.40
2018-09-03T05:51:47.921Z,44.30
2018-09-03T05:52:47.723Z,42.30
2018-09-03T05:53:47.719Z,44.40
2018-09-03T05:54:47.723Z,44.10
2018-09-03T05:55:47.721Z,42.00
2018-09-03T05:56:47.749Z,40.70
2018-09-03T05:57:47.721Z,41.90
2018-09-03T05:58:47.718Z,40.90
2018-09-03T05:59:47.727Z,40.60
2018-09-03T06:00:47.727Z,40.40
2018-09-03T06:01:47.754Z,42.80
2018-09-03T06:02:47.721Z,41.60
2018-09-03T06:03:48.021Z,40.80
2018-09-03T06:04:47.770Z,42.70
2018-09-03T06:05:50.895Z,41.70
2018-09-03T06:06:47.722Z,41.60
2018-09-03T06:07:47.722Z,40.40
2018-09-03T06:08:47.723Z,40.10
2018-09-03T06:09:47.721Z,39.70
2018-09-03T06:10:47.846Z,40.20
2018-09-03T06:11:47.727Z,40.50
2018-09-03T06:12:47.734Z,41.60
2018-09-03T06:13:47.728Z,41.70
2018-09-03T06:14:47.729Z,42.10
2018-09-03T06:15:47.756Z,41.60
2018-09-03T06:16:47.728Z,42.90
2018-09-03T06:17:47.764Z,44.00
2018-09-03T06:18:47.725Z,44.20
2018-09-03T06:19:47.728Z,40.40
2018-09-03T06:20:47.756Z,44.00
2018-09-03T06:21:48.265Z,45.60
2018-09-03T06:22:47.726Z,46.90
2018-09-03T06:23:47.729Z,47.90
2018-09-03T06:24:47.729Z,46.50
2018-09-03T06:25:47.756Z,45.30
2018-09-03T06:26:47.837Z,47.60
2018-09-03T06:27:47.730Z,42.50
2018-09-03T06:28:47.729Z,42.00
2018-09-03T06:29:47.729Z,41.20
2018-09-03T06:30:47.726Z,42.30
2018-09-03T06:31:47.761Z,41.50
2018-09-03T06:32:47.791Z,42.20
2018-09-03T06:33:47.730Z,42.20
2018-09-03T06:34:47.731Z,39.60
2018-09-03T06:35:47.741Z,38.80
2018-09-03T06:36:47.759Z,35.50
2018-09-03T06:37:47.731Z,36.60
2018-09-03T06:38:47.737Z,36.90
2018-09-03T06:39:47.736Z,36.90
2018-09-03T06:40:47.730Z,36.30
2018-09-03T06:41:47.759Z,37.10
2018-09-03T06:42:47.735Z,37.80
2018-09-03T06:43:47.732Z,38.30
2018-09-03T06:44:47.731Z,37.30
2018-09-03T06:45:47.745Z,37.10
2018-09-03T06:46:47.756Z,39.10
2018-09-03T06:47:47.732Z,40.30
2018-09-03T06:48:47.732Z,41.90
2018-09-03T06:49:47.732Z,39.50
2018-09-03T06:50:47.736Z,38.30
2018-09-03T06:51:47.757Z,37.20
2018-09-03T06:52:47.778Z,38.70
2018-09-03T06:53:47.733Z,34.90
2018-09-03T06:54:47.733Z,32.80
2018-09-03T06:55:47.733Z,32.00
2018-09-03T06:56:47.765Z,32.10
2018-09-03T06:57:47.733Z,31.70
2018-09-03T06:58:47.729Z,31.20
2018-09-03T06:59:48.274Z,32.80
2018-09-03T07:00:47.766Z,32.20
2018-09-03T07:01:47.746Z,32.90
2018-09-03T07:02:47.759Z,31.60
2018-09-03T07:03:47.743Z,31.90
2018-09-03T07:04:48.095Z,29.70
2018-09-03T07:05:47.737Z,31.70
2018-09-03T07:06:47.811Z,29.40
2018-09-03T07:07:47.763Z,27.50
2018-09-03T07:08:47.734Z,29.10
2018-09-03T07:09:47.738Z,29.70
2018-09-03T07:10:47.766Z,27.50
2018-09-03T07:11:47.739Z,27.70
2018-09-03T07:12:47.762Z,29.10
2018-09-03T07:13:47.740Z,28.20
2018-09-03T07:14:47.738Z,28.70
2018-09-03T07:15:48.320Z,29.70
2018-09-03T07:16:47.769Z,29.50
2018-09-03T07:17:47.740Z,30.00
2018-09-03T07:18:47.755Z,28.10
2018-09-03T07:19:47.746Z,28.30
2018-09-03T07:20:47.772Z,27.80
2018-09-03T07:21:47.745Z,27.30
2018-09-03T07:22:47.772Z,26.80
2018-09-03T07:23:47.740Z,27.30
2018-09-03T07:24:47.749Z,27.30
2018-09-03T07:25:47.753Z,26.60
2018-09-03T07:26:47.782Z,25.80
2018-09-03T07:27:48.346Z,25.30
2018-09-03T07:28:48.411Z,24.10
2018-09-03T07:29:48.345Z,24.20
2018-09-03T07:30:48.408Z,25.50
2018-09-03T07:31:49.346Z,26.10
2018-09-03T07:32:47.749Z,24.50
2018-09-03T07:33:47.751Z,24.00
2018-09-03T07:34:47.754Z,23.30
2018-09-03T07:35:47.782Z,22.20
2018-09-03T07:36:47.755Z,22.80
2018-09-03T07:37:47.787Z,23.80
2018-09-03T07:38:47.757Z,23.00
2018-09-03T07:39:47.754Z,21.40
2018-09-03T07:40:47.795Z,21.60
2018-09-03T07:41:47.757Z,22.60
2018-09-03T07:42:47.763Z,21.10
2018-09-03T07:43:47.759Z,21.40
2018-09-03T07:44:47.763Z,20.90
2018-09-03T07:45:47.792Z,19.80
2018-09-03T07:46:47.768Z,19.50
2018-09-03T07:47:47.783Z,19.70
2018-09-03T07:48:47.773Z,20.20
2018-09-03T07:49:47.768Z,19.90
2018-09-03T07:50:47.796Z,20.10
2018-09-03T07:51:47.771Z,20.20
2018-09-03T07:52:47.773Z,19.50
2018-09-03T07:53:47.780Z,19.10
2018-09-03T07:54:47.777Z,19.30
2018-09-03T07:55:47.806Z,19.90
2018-09-03T07:56:47.780Z,20.10
2018-09-03T07:57:47.807Z,19.90
2018-09-03T07:58:47.785Z,18.60
2018-09-03T07:59:47.781Z,19.00
2018-09-03T08:00:47.790Z,18.90
2018-09-03T08:01:47.817Z,19.00
2018-09-03T08:02:47.790Z,18.10
2018-09-03T08:03:47.793Z,18.00
2018-09-03T08:04:47.792Z,17.40
2018-09-03T08:05:47.795Z,16.40
2018-09-03T08:06:47.823Z,17.40
2018-09-03T08:07:47.795Z,16.20
2018-09-03T08:08:47.803Z,16.30
2018-09-03T08:09:47.799Z,15.90
2018-09-03T08:10:47.803Z,16.50
2018-09-03T08:11:47.825Z,16.60
2018-09-03T08:12:47.865Z,17.30
2018-09-03T08:13:47.814Z,17.40
2018-09-03T08:14:47.808Z,17.50
2018-09-03T08:15:47.808Z,17.70
2018-09-03T08:16:47.840Z,17.10
2018-09-03T08:17:47.816Z,18.10
2018-09-03T08:18:47.817Z,17.40
2018-09-03T08:19:47.810Z,18.30
2018-09-03T08:20:47.816Z,17.40
2018-09-03T08:21:47.849Z,17.90
2018-09-03T08:22:47.825Z,18.40
2018-09-03T08:23:47.822Z,17.90
2018-09-03T08:24:47.829Z,17.80
2018-09-03T08:25:47.827Z,17.00
2018-09-03T08:26:47.853Z,17.90
2018-09-03T08:27:47.827Z,17.70
2018-09-03T08:28:47.833Z,18.30
2018-09-03T08:29:47.830Z,19.00
2018-09-03T08:30:47.835Z,19.30
2018-09-03T08:31:47.858Z,18.80
2018-09-03T08:32:47.833Z,19.00
2018-09-03T08:33:47.842Z,19.60
2018-09-03T08:34:47.835Z,20.70
2018-09-03T08:35:47.834Z,20.00
2018-09-03T08:36:47.879Z,20.70
2018-09-03T08:37:47.847Z,21.80
2018-09-03T08:38:47.840Z,21.60
2018-09-03T08:39:47.883Z,21.30
2018-09-03T08:40:47.844Z,22.20
2018-09-03T08:41:47.872Z,22.50
2018-09-03T08:42:47.847Z,22.10
2018-09-03T08:43:47.845Z,22.30
2018-09-03T08:44:47.894Z,22.50
2018-09-03T08:45:47.867Z,22.30
2018-09-03T08:46:47.895Z,22.70
2018-09-03T08:47:47.857Z,22.60
2018-09-03T08:48:48.289Z,23.80
2018-09-03T08:49:47.851Z,24.30
2018-09-03T08:50:47.850Z,24.30
2018-09-03T08:51:47.853Z,24.20
2018-09-03T08:52:49.390Z,24.80
2018-09-03T08:53:47.854Z,24.60
2018-09-03T08:54:47.850Z,24.80
2018-09-03T08:55:47.866Z,25.30
2018-09-03T08:56:47.900Z,24.40
2018-09-03T08:57:47.858Z,25.10
2018-09-03T08:58:48.097Z,25.30
2018-09-03T08:59:48.783Z,24.90
2018-09-03T09:00:47.876Z,26.00
2018-09-03T09:01:47.894Z,26.00
2018-09-03T09:02:47.862Z,26.80
2018-09-03T09:03:47.862Z,26.50
2018-09-03T09:04:47.869Z,27.80
2018-09-03T09:05:47.873Z,26.80
2018-09-03T09:06:48.098Z,27.40
2018-09-03T09:07:47.865Z,25.60
2018-09-03T09:08:47.865Z,26.10
2018-09-03T09:09:47.873Z,26.00
2018-09-03T09:10:47.861Z,26.80
2018-09-03T09:11:51.337Z,25.30
2018-09-03T09:12:48.128Z,24.70
2018-09-03T09:13:50.781Z,24.40
2018-09-03T09:14:48.020Z,22.90
2018-09-03T09:15:55.369Z,24.50
2018-09-03T09:16:47.975Z,24.00
2018-09-03T09:17:49.430Z,23.60
2018-09-03T09:18:48.842Z,23.50
2018-09-03T09:19:48.120Z,23.20
2018-09-03T09:20:48.189Z,22.60
2018-09-03T09:21:48.068Z,21.50
2018-09-03T09:22:49.841Z,21.60
2018-09-03T09:23:51.940Z,21.50
2018-09-03T09:24:48.008Z,21.30
2018-09-03T09:25:48.083Z,23.10
2018-09-03T09:26:47.920Z,22.40
2018-09-03T09:27:48.064Z,22.40
2018-09-03T09:28:47.895Z,22.00
2018-09-03T09:29:48.498Z,21.70
2018-09-03T09:30:48.045Z,22.20
2018-09-03T09:31:47.920Z,21.70
2018-09-03T09:32:48.022Z,21.70
2018-09-03T09:33:48.023Z,21.40
2018-09-03T09:34:47.991Z,21.80
2018-09-03T09:35:47.984Z,21.90
2018-09-03T09:36:47.942Z,23.20
2018-09-03T09:37:47.897Z,22.10
2018-09-03T09:38:47.903Z,21.80
2018-09-03T09:39:47.896Z,20.90
2018-09-03T09:40:47.899Z,21.90
2018-09-03T09:41:47.931Z,20.60
2018-09-03T09:42:47.914Z,20.80
2018-09-03T09:43:47.903Z,20.90
2018-09-03T09:44:47.930Z,19.50
2018-09-03T09:45:47.908Z,19.70
2018-09-03T09:46:47.907Z,18.70
2018-09-03T09:47:47.938Z,20.50
2018-09-03T09:48:47.902Z,20.70
2018-09-03T09:49:48.016Z,21.40
2018-09-03T09:50:47.909Z,21.30
2018-09-03T09:51:47.911Z,21.80
2018-09-03T09:52:47.949Z,21.40
2018-09-03T09:53:47.912Z,21.20
2018-09-03T09:54:47.929Z,20.80
2018-09-03T09:55:47.907Z,20.60
2018-09-03T09:56:47.957Z,20.70
2018-09-03T09:57:47.916Z,20.00
2018-09-03T09:58:47.975Z,19.70
2018-09-03T09:59:47.956Z,17.70
2018-09-03T10:00:47.925Z,19.50
2018-09-03T10:01:47.959Z,19.50
2018-09-03T10:02:47.929Z,17.80
2018-09-03T10:03:47.925Z,18.90
2018-09-03T10:04:47.924Z,17.60
2018-09-03T10:05:47.935Z,19.30
2018-09-03T10:06:47.961Z,19.70
2018-09-03T10:07:47.970Z,18.50
2018-09-03T10:08:48.034Z,19.20
2018-09-03T10:09:47.965Z,19.50
2018-09-03T10:10:47.932Z,18.00
2018-09-03T10:11:47.925Z,16.90
2018-09-03T10:12:47.965Z,17.00
2018-09-03T10:13:47.934Z,17.10
2018-09-03T10:14:47.935Z,17.80
2018-09-03T10:15:47.942Z,17.00
2018-09-03T10:16:47.965Z,14.70
2018-09-03T10:17:47.944Z,16.20
2018-09-03T10:18:47.939Z,15.50
2018-09-03T10:19:47.970Z,15.20
2018-09-03T10:20:48.009Z,15.40
2018-09-03T10:21:47.937Z,15.20
2018-09-03T10:22:47.963Z,14.40
2018-09-03T10:23:47.943Z,14.00
2018-09-03T10:24:47.946Z,12.40
2018-09-03T10:25:47.946Z,12.90
2018-09-03T10:26:47.947Z,13.10
2018-09-03T10:27:47.976Z,13.90
2018-09-03T10:28:47.949Z,13.30
2018-09-03T10:29:47.988Z,13.90
2018-09-03T10:30:47.959Z,13.20
2018-09-03T10:31:48.011Z,13.90
2018-09-03T10:32:47.992Z,14.20
2018-09-03T10:33:47.957Z,13.70
2018-09-03T10:34:47.965Z,14.20
2018-09-03T10:35:47.965Z,12.90
2018-09-03T10:36:47.971Z,13.90
2018-09-03T10:37:48.001Z,14.00
2018-09-03T10:38:47.973Z,14.90
2018-09-03T10:39:47.973Z,14.80
2018-09-03T10:40:47.975Z,14.90
2018-09-03T10:41:47.999Z,14.20
2018-09-03T10:42:48.007Z,14.40
2018-09-03T10:43:47.978Z,14.60
2018-09-03T10:44:47.994Z,13.90
2018-09-03T10:45:47.986Z,13.80
2018-09-03T10:46:47.988Z,14.20
2018-09-03T10:47:48.016Z,14.10
2018-09-03T10:48:47.987Z,14.90
2018-09-03T10:49:48.027Z,14.70
2018-09-03T10:50:47.991Z,14.70
2018-09-03T10:51:48.023Z,15.40
2018-09-03T10:52:47.996Z,15.00
2018-09-03T10:53:47.996Z,15.60
2018-09-03T10:54:48.024Z,15.30
2018-09-03T10:55:48.000Z,15.60
2018-09-03T10:56:48.001Z,15.70
2018-09-03T10:57:48.031Z,15.90
2018-09-03T10:58:48.008Z,15.60
2018-09-03T10:59:48.933Z,16.00
2018-09-03T11:00:48.005Z,14.90
2018-09-03T11:01:48.036Z,14.20
2018-09-03T11:02:48.937Z,14.90
2018-09-03T11:03:48.014Z,14.90
2018-09-03T11:04:48.013Z,14.60
2018-09-03T11:05:48.017Z,14.20
2018-09-03T11:06:48.046Z,13.40
2018-09-03T11:07:48.017Z,13.90
2018-09-03T11:08:48.022Z,13.40
2018-09-03T11:09:48.022Z,13.70
2018-09-03T11:10:48.042Z,14.60
2018-09-03T11:11:48.051Z,14.50
2018-09-03T11:12:48.032Z,14.40
2018-09-03T11:13:48.030Z,13.50
2018-09-03T11:14:48.031Z,12.60
2018-09-03T11:15:48.037Z,13.10
2018-09-03T11:16:48.060Z,14.30
2018-09-03T11:17:48.040Z,13.40
2018-09-03T11:18:48.043Z,12.60
2018-09-03T11:19:48.959Z,13.40
2018-09-03T11:20:48.045Z,12.80
2018-09-03T11:21:48.075Z,12.30
2018-09-03T11:22:48.048Z,11.80
2018-09-03T11:23:48.052Z,11.10
2018-09-03T11:24:48.082Z,11.50
2018-09-03T11:25:50.114Z,10.80
2018-09-03T11:26:48.092Z,11.50
2018-09-03T11:27:48.061Z,11.60
2018-09-03T11:28:48.082Z,11.80
2018-09-03T11:29:48.069Z,11.90
2018-09-03T11:30:48.097Z,11.50
2018-09-03T11:31:48.080Z,11.80
2018-09-03T11:32:48.073Z,11.60
2018-09-03T11:33:48.077Z,11.90
2018-09-03T11:34:48.081Z,12.00
2018-09-03T11:35:48.106Z,11.60
2018-09-03T11:36:48.086Z,12.30
2018-09-03T11:37:48.095Z,12.50
2018-09-03T11:38:48.090Z,12.00
2018-09-03T11:39:48.095Z,12.00
2018-09-03T11:40:48.152Z,13.00
2018-09-03T11:41:48.106Z,12.60
2018-09-03T11:42:48.099Z,12.60
2018-09-03T11:43:48.104Z,12.70
2018-09-03T11:44:48.116Z,13.70
2018-09-03T11:45:48.125Z,13.50
2018-09-03T11:46:48.116Z,12.30
2018-09-03T11:47:48.114Z,13.80
2018-09-03T11:48:48.116Z,13.90
2018-09-03T11:49:48.120Z,14.30
2018-09-03T11:50:48.150Z,12.90
2018-09-03T11:51:48.125Z,13.90
2018-09-03T11:52:48.130Z,14.70
2018-09-03T11:53:48.133Z,12.90
2018-09-03T11:54:48.165Z,13.90
2018-09-03T11:55:48.141Z,13.40
2018-09-03T11:56:48.219Z,14.00
2018-09-03T11:57:48.156Z,14.10
2018-09-03T11:58:48.146Z,14.40
2018-09-03T11:59:48.174Z,15.10
2018-09-03T12:00:48.154Z,14.90
2018-09-03T12:01:48.151Z,14.70
2018-09-03T12:02:48.160Z,14.90
2018-09-03T12:03:48.163Z,15.00
2018-09-03T12:04:53.615Z,15.40
2018-09-03T12:05:48.167Z,14.90
2018-09-03T12:06:48.182Z,15.50
2018-09-03T12:07:48.175Z,16.00
2018-09-03T12:08:48.179Z,15.80
2018-09-03T12:09:48.213Z,15.80
2018-09-03T12:10:48.184Z,16.80
2018-09-03T12:11:48.191Z,17.30
2018-09-03T12:12:48.184Z,17.60
2018-09-03T12:13:48.220Z,17.30
2018-09-03T12:14:48.195Z,18.90
2018-09-03T12:15:48.200Z,18.40
2018-09-03T12:16:48.201Z,17.90
2018-09-03T12:17:48.205Z,18.20
2018-09-03T12:18:48.232Z,17.60
2018-09-03T12:19:48.214Z,19.30
2018-09-03T12:20:48.217Z,18.40
2018-09-03T12:21:48.214Z,19.40
2018-09-03T12:22:48.215Z,18.80
2018-09-03T12:23:48.245Z,19.20
2018-09-03T12:24:48.222Z,20.00
2018-09-03T12:25:48.228Z,20.70
2018-09-03T12:26:48.226Z,19.80
2018-09-03T12:27:48.234Z,20.90
2018-09-03T12:28:48.258Z,19.50
2018-09-03T12:29:48.231Z,20.30
2018-09-03T12:30:48.235Z,20.00
2018-09-03T12:31:48.243Z,20.40
2018-09-03T12:32:48.240Z,21.20
2018-09-03T12:33:48.267Z,18.70
2018-09-03T12:34:48.243Z,20.30
2018-09-03T12:35:48.243Z,18.40
2018-09-03T12:36:48.250Z,19.50
2018-09-03T12:37:48.260Z,19.40
2018-09-03T12:38:48.280Z,18.90
2018-09-03T12:39:48.249Z,19.50
2018-09-03T12:40:48.254Z,20.20
2018-09-03T12:41:48.296Z,20.60
2018-09-03T12:42:48.311Z,19.50
2018-09-03T12:43:48.260Z,20.70
2018-09-03T12:44:48.306Z,21.80
2018-09-03T12:45:48.260Z,21.70
2018-09-03T12:46:48.265Z,22.80
2018-09-03T12:47:48.272Z,21.60
2018-09-03T12:48:48.269Z,21.30
2018-09-03T12:49:48.332Z,21.50
2018-09-03T12:50:48.273Z,21.00
2018-09-03T12:51:48.309Z,20.10
2018-09-03T12:52:48.281Z,21.40